createdAt,value
2017-01-26T10:17:25.757Z,35.1
2017-01-26T10:17:29.764Z,35.1
2017-01-26T10:18:10.095Z,35
2017-01-26T10:19:00.377Z,35.1
2017-01-26T13:01:31.795Z,33.6
2017-01-26T13:01:57.567Z,33.5
2017-01-26T14:14:01.475Z,34.8
2017-01-26T14:14:12.264Z,34.7
2017-01-26T14:15:56.725Z,34.9
2017-01-26T14:18:29.143Z,31.8
2017-01-26T14:21:01.949Z,30.1
2017-01-26T14:23:35.197Z,32.2
2017-01-26T14:26:07.573Z,34.5
2017-01-26T16:33:10.706Z,40.8
2017-01-26T16:33:29.494Z,40.9
2017-01-26T16:36:01.913Z,41.1
2017-01-26T16:38:34.734Z,41.2
2017-01-26T16:41:07.334Z,41.4
2017-01-26T16:43:39.730Z,41.4
2017-01-26T16:46:12.113Z,41.4
2017-01-26T16:48:44.510Z,41.6
2017-01-26T16:51:16.909Z,41.8
2017-01-26T16:53:49.330Z,41.7
2017-01-26T16:56:21.732Z,41.9
2017-01-26T16:58:54.734Z,42.1
2017-01-26T17:01:27.982Z,42.2
2017-01-26T17:04:00.834Z,42.2
2017-01-26T17:06:33.232Z,42.3
2017-01-26T17:09:05.599Z,42.2
2017-01-26T19:09:19.543Z,42.3
2017-01-26T19:09:38.782Z,42.3
2017-01-26T19:12:11.630Z,42.3
2017-01-26T19:14:44.029Z,42.4
2017-01-26T19:17:16.504Z,42.4
2017-01-26T19:19:48.893Z,42.5
2017-01-26T19:22:21.695Z,42.5
2017-01-26T19:24:54.096Z,42.5
2017-01-26T19:27:26.990Z,42.5
2017-01-26T19:29:59.397Z,42.6
2017-01-26T19:32:31.810Z,42.6
